Sainte Genevieve, Missouri
Current Conditions -  °F | °C
As of 4:55 AM on Sunday 23 Nov 2014 (Local Time) from KSAR Reporting Station
Clear Clear  
Wind Chill: 54°   Ceiling: Unl
Heat Index: 54°   Visibility: 10mi
Dew Point: 47°   Wind: 10mph
Humidity: 78%   Direction: 160°SSE
Pressure: 29.79"   Gusts: NA
Location:  37.98°N, 90.04°W
Report Text: KSAR 231055Z AUTO 16009KT 10SM CLR 12/08 A2979 RMK AO2 T01200082
Loading
Personal Weather Stations






























Interactive Weather Map New forecast layout! Learn more

10-Day Weather Forecast

Advertisements
Track Severe Weather on mobile